Time;durP1;ratioP1;P1;durP2;ratioP2;P2;SDS_P1;SDS_P2;PMS_P1;PMS_P2;Temp;Humidity;BMP_temperature;BMP_pressure;BME280_temperature;BME280_humidity;BME280_pressure;Samples;Min_cycle;Max_cycle;Signal;HPM_P1;HPM_P2
2022/08/15 00:01:51;;;;;;;;;;;;;;;;;;2206328;59;1608;-54
2022/08/15 00:04:24;;;;;;;;;;;;;;;;;;2206342;59;1277;-55
2022/08/15 00:07:00;;;;;;;;;;;;;;;;;;2206274;67;1511;-54
2022/08/15 00:09:33;;;;;;;;;;;;;;;;;;2206969;67;1105;-53
2022/08/15 00:12:07;;;;;;;;;;;;;;;;;;2206627;59;1259;-54
2022/08/15 00:14:40;;;;;;;;;;;;;;;;;;2206983;59;1983;-54
2022/08/15 00:17:13;;;;;;;;;;;;;;;;;;2207074;67;1284;-54
2022/08/15 00:19:47;;;;;;;;;;;;;;;;;;2206838;67;1140;-55
2022/08/15 00:22:23;;;;;;;;;;;;;;;;;;2207329;67;1157;-53
2022/08/15 00:24:57;;;;;;;;;;;;;;;;;;2207287;67;1320;-56
2022/08/15 00:27:31;;;;;;;;;;;;;;;;;;2207700;67;1231;-55
2022/08/15 00:30:04;;;;;;;;;;;;;;;;;;2207626;67;1278;-56
2022/08/15 00:32:37;;;;;;;;;;;;;;;;;;2207755;67;1140;-54
2022/08/15 00:35:35;;;;;;;;;;;;;;;;;;2207370;67;1926;-53
2022/08/15 00:38:08;;;;;;;;;;;;;;;;;;2206917;67;1925;-54
2022/08/15 00:43:27;;;;;;;;;;;;;;;;;;2207269;67;2028;-54
2022/08/15 00:46:00;;;;;;;;;;;;;;;;;;2206623;67;1085;-53
2022/08/15 00:48:46;;;;;;;;;;;;;;;;;;2207406;67;1215;-55
2022/08/15 00:51:22;;;;;;;;;;;;;;;;;;2207083;59;1248;-53
2022/08/15 00:54:02;;;;;;;;;;;;;;;;;;2206845;67;1935;-57
2022/08/15 00:56:38;;;;;;;;;;;;;;;;;;2207541;67;1193;-53
2022/08/15 00:59:13;;;;;;;;;;;;;;;;;;2207381;59;1823;-54
2022/08/15 01:01:47;;;;;;;;;;;;;;;;;;2206806;59;1559;-53
2022/08/15 01:04:20;;;;;;;;;;;;;;;;;;2207323;59;1273;-53
2022/08/15 01:06:58;;;;;;;;;;;;;;;;;;2206870;67;1151;-54
2022/08/15 01:09:35;;;;;;;;;;;;;;;;;;2207662;67;1121;-53
2022/08/15 01:12:10;;;;;;;;;;;;;;;;;;2206752;59;1275;-55
2022/08/15 01:14:46;;;;;;;;;;;;;;;;;;2206847;59;1995;-53
2022/08/15 01:17:19;;;;;;;;;;;;;;;;;;2207463;67;1218;-53
2022/08/15 01:19:55;;;;;;;;;;;;;;;;;;2207721;67;1114;-54
2022/08/15 01:22:48;;;;;;;;;;;;;;;;;;2208188;67;1111;-54
2022/08/15 01:25:25;;;;;;;;;;;;;;;;;;2208001;67;1096;-53
2022/08/15 01:28:00;;;;;;;;;;;;;;;;;;2207958;67;1173;-53
2022/08/15 01:30:36;;;;;;;;;;;;;;;;;;2207961;67;1137;-54
2022/08/15 01:33:10;;;;;;;;;;;;;;;;;;2207221;67;1161;-53
2022/08/15 01:35:45;;;;;;;;;;;;;;;;;;2208352;59;1933;-53
2022/08/15 01:38:23;;;;;;;;;;;;;;;;;;2208066;67;1154;-55
2022/08/15 01:41:06;;;;;;;;;;;;;;;;;;2207913;67;1088;-58
2022/08/15 01:43:41;;;;;;;;;;;;;;;;;;2207561;67;1254;-53
2022/08/15 01:46:15;;;;;;;;;;;;;;;;;;2207265;67;1764;-54
2022/08/15 01:48:51;;;;;;;;;;;;;;;;;;2207021;67;1111;-53
2022/08/15 01:51:24;;;;;;;;;;;;;;;;;;2207534;67;1241;-52
2022/08/15 01:53:59;;;;;;;;;;;;;;;;;;2207374;67;1222;-53
2022/08/15 01:56:36;;;;;;;;;;;;;;;;;;2207132;67;1908;-53
2022/08/15 01:59:13;;;;;;;;;;;;;;;;;;2207014;67;1203;-54
2022/08/15 02:01:48;;;;;;;;;;;;;;;;;;2207375;59;1568;-52
2022/08/15 02:04:22;;;;;;;;;;;;;;;;;;2207483;59;1275;-52
2022/08/15 02:06:55;;;;;;;;;;;;;;;;;;2207335;60;1084;-51
2022/08/15 02:09:29;;;;;;;;;;;;;;;;;;2207594;67;1250;-52
2022/08/15 02:12:08;;;;;;;;;;;;;;;;;;2208079;59;1322;-52
2022/08/15 02:14:41;;;;;;;;;;;;;;;;;;2213245;53;1990;-74
2022/08/15 02:17:16;;;;;;;;;;;;;;;;;;2214273;66;1272;-74
2022/08/15 02:19:50;;;;;;;;;;;;;;;;;;2215691;66;1224;-75
2022/08/15 02:22:25;;;;;;;;;;;;;;;;;;2215862;66;1215;-74
2022/08/15 02:24:58;;;;;;;;;;;;;;;;;;2216822;58;1166;-74
2022/08/15 02:30:17;;;;;;;;;;;;;;;;;;2208066;59;1254;-71
2022/08/15 02:32:50;;;;;;;;;;;;;;;;;;2210278;59;1199;-71
2022/08/15 02:35:23;;;;;;;;;;;;;;;;;;2211528;67;1923;-71
2022/08/15 02:37:58;;;;;;;;;;;;;;;;;;2211102;67;1268;-71
2022/08/15 02:40:31;;;;;;;;;;;;;;;;;;2210895;67;1131;-70
2022/08/15 02:43:06;;;;;;;;;;;;;;;;;;2210629;67;1183;-71
2022/08/15 02:45:47;;;;;;;;;;;;;;;;;;2211413;59;1053;-70
2022/08/15 02:48:20;;;;;;;;;;;;;;;;;;2211664;67;1179;-71
2022/08/15 02:50:53;;;;;;;;;;;;;;;;;;2210655;59;1202;-70
2022/08/15 02:53:27;;;;;;;;;;;;;;;;;;2210450;67;1285;-71
2022/08/15 02:56:00;;;;;;;;;;;;;;;;;;2210344;59;1928;-71
2022/08/15 02:58:34;;;;;;;;;;;;;;;;;;2209640;67;1272;-71
2022/08/15 03:01:11;;;;;;;;;;;;;;;;;;2208950;67;1217;-71
2022/08/15 03:03:45;;;;;;;;;;;;;;;;;;2209823;59;1882;-70
2022/08/15 03:06:24;;;;;;;;;;;;;;;;;;2210223;59;1228;-71
2022/08/15 03:09:00;;;;;;;;;;;;;;;;;;2210465;59;1262;-71
2022/08/15 03:11:34;;;;;;;;;;;;;;;;;;2209281;59;1329;-71
2022/08/15 03:14:08;;;;;;;;;;;;;;;;;;2209921;59;1230;-71
2022/08/15 03:16:45;;;;;;;;;;;;;;;;;;2209464;67;1933;-71
2022/08/15 03:19:20;;;;;;;;;;;;;;;;;;2210083;67;1259;-71
2022/08/15 03:21:53;;;;;;;;;;;;;;;;;;2209637;67;1263;-71
2022/08/15 03:24:26;;;;;;;;;;;;;;;;;;2209505;59;2269;-71
2022/08/15 03:27:00;;;;;;;;;;;;;;;;;;2209212;59;1292;-71
2022/08/15 03:29:33;;;;;;;;;;;;;;;;;;2210248;59;1192;-71
2022/08/15 03:32:14;;;;;;;;;;;;;;;;;;2210631;59;1130;-71
2022/08/15 03:34:47;;;;;;;;;;;;;;;;;;2210381;67;1979;-71
2022/08/15 03:37:20;;;;;;;;;;;;;;;;;;2209514;59;1319;-71
2022/08/15 03:39:53;;;;;;;;;;;;;;;;;;2209653;67;1203;-71
2022/08/15 03:42:29;;;;;;;;;;;;;;;;;;2209322;59;1289;-71
2022/08/15 03:45:02;;;;;;;;;;;;;;;;;;2209588;67;1088;-71
2022/08/15 03:47:38;;;;;;;;;;;;;;;;;;2209532;67;1237;-71
2022/08/15 03:50:14;;;;;;;;;;;;;;;;;;2210652;59;2131;-71
2022/08/15 03:52:51;;;;;;;;;;;;;;;;;;2208966;59;1103;-71
2022/08/15 03:55:25;;;;;;;;;;;;;;;;;;2210819;59;1921;-72
2022/08/15 03:57:58;;;;;;;;;;;;;;;;;;2210226;59;1258;-71
2022/08/15 04:00:33;;;;;;;;;;;;;;;;;;2208220;67;1492;-71
2022/08/15 04:03:11;;;;;;;;;;;;;;;;;;2211431;59;1624;-71
2022/08/15 04:05:47;;;;;;;;;;;;;;;;;;2210349;67;1279;-71
2022/08/15 04:08:22;;;;;;;;;;;;;;;;;;2209415;59;1248;-71
2022/08/15 04:10:56;;;;;;;;;;;;;;;;;;2210661;67;1208;-71
2022/08/15 04:13:30;;;;;;;;;;;;;;;;;;2211176;67;1208;-71
2022/08/15 04:16:04;;;;;;;;;;;;;;;;;;2210305;67;1934;-71
2022/08/15 04:18:40;;;;;;;;;;;;;;;;;;2210097;67;1249;-71
2022/08/15 04:21:15;;;;;;;;;;;;;;;;;;2210020;59;1234;-71
2022/08/15 04:23:48;;;;;;;;;;;;;;;;;;2210056;59;1280;-71
2022/08/15 04:26:22;;;;;;;;;;;;;;;;;;2211229;67;1180;-71
2022/08/15 04:28:55;;;;;;;;;;;;;;;;;;2210898;59;1230;-71
2022/08/15 04:31:28;;;;;;;;;;;;;;;;;;2210451;67;1282;-71
2022/08/15 04:34:06;;;;;;;;;;;;;;;;;;2211142;59;1297;-71
2022/08/15 04:36:39;;;;;;;;;;;;;;;;;;2210368;59;1924;-71
2022/08/15 04:39:12;;;;;;;;;;;;;;;;;;2211289;67;1189;-71
2022/08/15 04:41:45;;;;;;;;;;;;;;;;;;2210110;59;1091;-71
2022/08/15 04:44:18;;;;;;;;;;;;;;;;;;2210528;67;1226;-71
2022/08/15 04:46:52;;;;;;;;;;;;;;;;;;2209673;59;1127;-71
2022/08/15 04:49:28;;;;;;;;;;;;;;;;;;2209985;67;1225;-71
2022/08/15 04:52:08;;;;;;;;;;;;;;;;;;2209446;67;1067;-71
2022/08/15 04:54:41;;;;;;;;;;;;;;;;;;2209604;60;1154;-71
2022/08/15 04:57:15;;;;;;;;;;;;;;;;;;2210638;59;1937;-71
2022/08/15 04:59:48;;;;;;;;;;;;;;;;;;2209995;67;1176;-71
2022/08/15 05:02:26;;;;;;;;;;;;;;;;;;2211519;59;1596;-71
2022/08/15 05:05:02;;;;;;;;;;;;;;;;;;2210967;67;1202;-71
2022/08/15 05:07:36;;;;;;;;;;;;;;;;;;2211058;67;1233;-71
2022/08/15 05:10:11;;;;;;;;;;;;;;;;;;2210334;59;1172;-71
2022/08/15 05:12:44;;;;;;;;;;;;;;;;;;2210487;59;1630;-71
2022/08/15 05:15:19;;;;;;;;;;;;;;;;;;2210660;67;1932;-71
2022/08/15 05:17:53;;;;;;;;;;;;;;;;;;2210154;67;1357;-71
2022/08/15 05:20:29;;;;;;;;;;;;;;;;;;2209959;67;1242;-71
2022/08/15 05:23:03;;;;;;;;;;;;;;;;;;2209288;67;1239;-71
2022/08/15 05:25:37;;;;;;;;;;;;;;;;;;2210665;59;1172;-71
2022/08/15 05:28:11;;;;;;;;;;;;;;;;;;2210008;59;1388;-71
2022/08/15 05:30:44;;;;;;;;;;;;;;;;;;2211009;67;1179;-71
2022/08/15 05:33:18;;;;;;;;;;;;;;;;;;2211101;67;1245;-71
2022/08/15 05:35:56;;;;;;;;;;;;;;;;;;2210675;59;1964;-71
2022/08/15 05:38:32;;;;;;;;;;;;;;;;;;2210054;67;1273;-71
2022/08/15 05:41:14;;;;;;;;;;;;;;;;;;2210292;67;1302;-71
2022/08/15 05:43:53;;;;;;;;;;;;;;;;;;2211440;67;1091;-71
2022/08/15 05:46:27;;;;;;;;;;;;;;;;;;2210627;67;1210;-71
2022/08/15 05:49:02;;;;;;;;;;;;;;;;;;2210653;59;1174;-71
2022/08/15 05:51:42;;;;;;;;;;;;;;;;;;2211186;67;1130;-71
2022/08/15 05:54:24;;;;;;;;;;;;;;;;;;2210253;59;1089;-71
2022/08/15 05:57:00;;;;;;;;;;;;;;;;;;2211082;67;1931;-71
2022/08/15 05:59:35;;;;;;;;;;;;;;;;;;2209838;67;1240;-71
2022/08/15 06:02:10;;;;;;;;;;;;;;;;;;2209847;59;1605;-71
2022/08/15 06:04:46;;;;;;;;;;;;;;;;;;2210357;59;1256;-71
2022/08/15 06:07:22;;;;;;;;;;;;;;;;;;2209812;67;1338;-71
2022/08/15 06:09:58;;;;;;;;;;;;;;;;;;2211330;67;1289;-71
2022/08/15 06:12:35;;;;;;;;;;;;;;;;;;2210690;59;1310;-71
2022/08/15 06:15:14;;;;;;;;;;;;;;;;;;2210375;67;1203;-71
2022/08/15 06:17:51;;;;;;;;;;;;;;;;;;2211398;67;1931;-71
2022/08/15 06:20:28;;;;;;;;;;;;;;;;;;2209808;67;1512;-71
2022/08/15 06:23:10;;;;;;;;;;;;;;;;;;2211060;67;1270;-71
2022/08/15 06:25:48;;;;;;;;;;;;;;;;;;2211621;59;1182;-71
2022/08/15 06:28:33;;;;;;;;;;;;;;;;;;2211176;59;1297;-71
2022/08/15 06:31:14;;;;;;;;;;;;;;;;;;2211182;67;1195;-71
2022/08/15 06:33:53;;;;;;;;;;;;;;;;;;2210701;67;1200;-72
2022/08/15 06:36:27;;;;;;;;;;;;;;;;;;2211062;59;1949;-71
2022/08/15 06:39:06;;;;;;;;;;;;;;;;;;2211613;67;1230;-71
2022/08/15 06:41:43;;;;;;;;;;;;;;;;;;2209803;67;1108;-72
2022/08/15 06:44:17;;;;;;;;;;;;;;;;;;2210620;67;1223;-71
2022/08/15 06:46:53;;;;;;;;;;;;;;;;;;2211377;67;1184;-72
2022/08/15 06:49:26;;;;;;;;;;;;;;;;;;2212159;67;1282;-72
2022/08/15 06:52:00;;;;;;;;;;;;;;;;;;2210613;59;1234;-72
2022/08/15 06:54:37;;;;;;;;;;;;;;;;;;2210377;59;1238;-72
2022/08/15 06:57:15;;;;;;;;;;;;;;;;;;2211635;67;1889;-72
2022/08/15 06:59:54;;;;;;;;;;;;;;;;;;2210989;67;1289;-72
2022/08/15 07:02:35;;;;;;;;;;;;;;;;;;2210838;59;1564;-72
2022/08/15 07:05:15;;;;;;;;;;;;;;;;;;2211424;60;1238;-73
2022/08/15 07:07:51;;;;;;;;;;;;;;;;;;2211612;59;1178;-73
2022/08/15 07:10:29;;;;;;;;;;;;;;;;;;2211852;67;1119;-73
2022/08/15 07:13:05;;;;;;;;;;;;;;;;;;2210758;59;1274;-73
2022/08/15 07:15:47;;;;;;;;;;;;;;;;;;2210036;59;1199;-72
2022/08/15 07:18:25;;;;;;;;;;;;;;;;;;2210553;59;2009;-73
2022/08/15 07:21:02;;;;;;;;;;;;;;;;;;2210405;67;1282;-73
2022/08/15 07:23:38;;;;;;;;;;;;;;;;;;2210729;59;1247;-73
2022/08/15 07:26:14;;;;;;;;;;;;;;;;;;2209953;59;1251;-73
2022/08/15 07:28:52;;;;;;;;;;;;;;;;;;2210112;59;1183;-72
2022/08/15 07:31:32;;;;;;;;;;;;;;;;;;2209687;67;1293;-73
2022/08/15 07:34:07;;;;;;;;;;;;;;;;;;2209742;67;1108;-73
2022/08/15 07:36:48;;;;;;;;;;;;;;;;;;2210016;59;1928;-73
2022/08/15 07:39:23;;;;;;;;;;;;;;;;;;2210214;67;1285;-72
2022/08/15 07:42:00;;;;;;;;;;;;;;;;;;2210300;67;1144;-73
2022/08/15 07:44:33;;;;;;;;;;;;;;;;;;2209812;67;1265;-73
2022/08/15 07:47:13;;;;;;;;;;;;;;;;;;2207316;67;1400;-73
2022/08/15 07:49:58;;;;;;;;;;;;;;;;;;2209258;67;1119;-73
2022/08/15 07:52:31;;;;;;;;;;;;;;;;;;2209479;67;1243;-72
2022/08/15 07:55:15;;;;;;;;;;;;;;;;;;2209008;59;1236;-73
2022/08/15 07:58:02;;;;;;;;;;;;;;;;;;2209709;67;1933;-72
2022/08/15 08:00:37;;;;;;;;;;;;;;;;;;2208676;67;1254;-72
2022/08/15 08:03:13;;;;;;;;;;;;;;;;;;2208599;59;1580;-72
2022/08/15 08:05:50;;;;;;;;;;;;;;;;;;2209293;67;1159;-72
2022/08/15 08:08:24;;;;;;;;;;;;;;;;;;2209359;67;1260;-73
2022/08/15 08:11:04;;;;;;;;;;;;;;;;;;2209184;59;1280;-73
2022/08/15 08:13:45;;;;;;;;;;;;;;;;;;2209610;67;1192;-72
2022/08/15 08:16:22;;;;;;;;;;;;;;;;;;2210105;67;1937;-73
2022/08/15 08:19:02;;;;;;;;;;;;;;;;;;2208855;67;1189;-73
2022/08/15 08:21:40;;;;;;;;;;;;;;;;;;2209430;67;1089;-73
2022/08/15 08:24:17;;;;;;;;;;;;;;;;;;2210586;67;1218;-73
2022/08/15 08:26:55;;;;;;;;;;;;;;;;;;2210013;59;1114;-73
2022/08/15 08:29:34;;;;;;;;;;;;;;;;;;2214872;53;1987;-65
2022/08/15 08:32:13;;;;;;;;;;;;;;;;;;2214833;66;1215;-65
2022/08/15 08:34:50;;;;;;;;;;;;;;;;;;2215157;58;2029;-65
2022/08/15 08:37:28;;;;;;;;;;;;;;;;;;2214865;59;1986;-65
2022/08/15 08:42:52;;;;;;;;;;;;;;;;;;2216504;66;1330;-63
2022/08/15 08:45:32;;;;;;;;;;;;;;;;;;2217027;66;1184;-65
2022/08/15 08:48:11;;;;;;;;;;;;;;;;;;2217213;66;1222;-65
2022/08/15 08:50:48;;;;;;;;;;;;;;;;;;2216881;66;1166;-65
2022/08/15 08:53:29;;;;;;;;;;;;;;;;;;2217057;66;1189;-63
2022/08/15 08:56:08;;;;;;;;;;;;;;;;;;2217313;66;1106;-64
2022/08/15 08:58:45;;;;;;;;;;;;;;;;;;2216709;66;1945;-65
2022/08/15 09:01:24;;;;;;;;;;;;;;;;;;2217115;59;1542;-65
2022/08/15 09:03:59;;;;;;;;;;;;;;;;;;2216280;59;1415;-65
2022/08/15 09:06:36;;;;;;;;;;;;;;;;;;2216909;66;1065;-64
2022/08/15 09:09:13;;;;;;;;;;;;;;;;;;2217051;66;1281;-65
2022/08/15 09:11:49;;;;;;;;;;;;;;;;;;2216979;58;1271;-65
2022/08/15 09:14:27;;;;;;;;;;;;;;;;;;2216815;59;1203;-63
2022/08/15 09:17:07;;;;;;;;;;;;;;;;;;2217056;66;2020;-66
2022/08/15 09:19:45;;;;;;;;;;;;;;;;;;2216387;66;1219;-65
2022/08/15 09:22:19;;;;;;;;;;;;;;;;;;2216611;66;1106;-63
2022/08/15 09:24:53;;;;;;;;;;;;;;;;;;2216383;66;2049;-64
2022/08/15 09:27:32;;;;;;;;;;;;;;;;;;2216917;66;1271;-65
2022/08/15 09:30:07;;;;;;;;;;;;;;;;;;2216699;58;1272;-64
2022/08/15 09:32:48;;;;;;;;;;;;;;;;;;2216524;66;1120;-65
2022/08/15 09:35:30;;;;;;;;;;;;;;;;;;2216604;66;1114;-65
2022/08/15 09:38:18;;;;;;;;;;;;;;;;;;2216120;66;1937;-65
2022/08/15 09:41:01;;;;;;;;;;;;;;;;;;2216598;66;1119;-64
2022/08/15 09:43:55;;;;;;;;;;;;;;;;;;2216197;66;1246;-65
2022/08/15 09:46:54;;;;;;;;;;;;;;;;;;2216853;66;1215;-65
2022/08/15 09:49:40;;;;;;;;;;;;;;;;;;2216773;66;1217;-65
2022/08/15 09:52:21;;;;;;;;;;;;;;;;;;2216504;66;1194;-66
2022/08/15 09:54:58;;;;;;;;;;;;;;;;;;2216741;66;1047;-65
2022/08/15 09:57:37;;;;;;;;;;;;;;;;;;2215836;66;1943;-64
2022/08/15 10:00:20;;;;;;;;;;;;;;;;;;2216556;66;1344;-66
2022/08/15 10:02:55;;;;;;;;;;;;;;;;;;2216363;58;2059;-64
2022/08/15 10:05:44;;;;;;;;;;;;;;;;;;2216028;59;1316;-65
2022/08/15 10:08:17;;;;;;;;;;;;;;;;;;2216675;66;1246;-66
2022/08/15 10:10:53;;;;;;;;;;;;;;;;;;2216720;58;1160;-65
2022/08/15 10:13:32;;;;;;;;;;;;;;;;;;2217217;66;1226;-66
2022/08/15 10:16:05;;;;;;;;;;;;;;;;;;2217468;66;1215;-66
2022/08/15 10:18:58;;;;;;;;;;;;;;;;;;2216592;66;1931;-66
2022/08/15 10:21:39;;;;;;;;;;;;;;;;;;2216875;66;1099;-66
2022/08/15 10:24:33;;;;;;;;;;;;;;;;;;2217407;66;1113;-66
2022/08/15 10:27:12;;;;;;;;;;;;;;;;;;2215424;66;2138;-66
2022/08/15 10:29:49;;;;;;;;;;;;;;;;;;2216559;58;1243;-64
2022/08/15 10:32:24;;;;;;;;;;;;;;;;;;2217539;66;1285;-64
2022/08/15 10:35:01;;;;;;;;;;;;;;;;;;2216489;66;1083;-65
2022/08/15 10:37:51;;;;;;;;;;;;;;;;;;2216571;58;1937;-66
2022/08/15 10:40:34;;;;;;;;;;;;;;;;;;2216749;66;1076;-65
2022/08/15 10:43:14;;;;;;;;;;;;;;;;;;2217127;58;1175;-66
2022/08/15 10:45:49;;;;;;;;;;;;;;;;;;2217163;66;1135;-65
2022/08/15 10:48:30;;;;;;;;;;;;;;;;;;2217541;66;1307;-66
2022/08/15 10:51:05;;;;;;;;;;;;;;;;;;2217033;66;1216;-66
2022/08/15 10:53:47;;;;;;;;;;;;;;;;;;2217217;66;1055;-65
2022/08/15 10:56:22;;;;;;;;;;;;;;;;;;2217481;66;1149;-66
2022/08/15 10:59:02;;;;;;;;;;;;;;;;;;2216870;66;1932;-66
2022/08/15 11:01:36;;;;;;;;;;;;;;;;;;2216507;59;1626;-66
2022/08/15 11:04:11;;;;;;;;;;;;;;;;;;2217394;58;1570;-66
2022/08/15 11:06:46;;;;;;;;;;;;;;;;;;2215175;66;1065;-64
2022/08/15 11:09:24;;;;;;;;;;;;;;;;;;2217218;66;1247;-64
2022/08/15 11:12:00;;;;;;;;;;;;;;;;;;2216905;58;1640;-64
2022/08/15 11:14:38;;;;;;;;;;;;;;;;;;2216844;66;1103;-65
2022/08/15 11:17:18;;;;;;;;;;;;;;;;;;2217434;58;1162;-65
2022/08/15 11:19:52;;;;;;;;;;;;;;;;;;2216803;66;1988;-65
2022/08/15 11:22:34;;;;;;;;;;;;;;;;;;2217051;66;1218;-66
2022/08/15 11:25:15;;;;;;;;;;;;;;;;;;2217044;66;1219;-63
2022/08/15 11:28:00;;;;;;;;;;;;;;;;;;2216596;66;1058;-65
2022/08/15 11:30:34;;;;;;;;;;;;;;;;;;2216927;59;1105;-65
2022/08/15 11:33:20;;;;;;;;;;;;;;;;;;2216453;66;1209;-63
2022/08/15 11:36:06;;;;;;;;;;;;;;;;;;2216245;58;1325;-65
2022/08/15 11:38:39;;;;;;;;;;;;;;;;;;2216191;66;1932;-65
2022/08/15 11:41:19;;;;;;;;;;;;;;;;;;2217078;66;1274;-64
2022/08/15 11:43:54;;;;;;;;;;;;;;;;;;2216437;58;1165;-65
2022/08/15 11:46:29;;;;;;;;;;;;;;;;;;2216478;66;1199;-64
2022/08/15 11:49:09;;;;;;;;;;;;;;;;;;2217032;66;1175;-66
2022/08/15 11:51:45;;;;;;;;;;;;;;;;;;2216531;66;1001;-64
2022/08/15 11:54:21;;;;;;;;;;;;;;;;;;2216435;66;1100;-65
2022/08/15 11:57:00;;;;;;;;;;;;;;;;;;2216757;66;1092;-64
2022/08/15 11:59:34;;;;;;;;;;;;;;;;;;2216033;66;1988;-66
2022/08/15 12:02:12;;;;;;;;;;;;;;;;;;2216003;58;1553;-65
2022/08/15 12:04:47;;;;;;;;;;;;;;;;;;2216589;59;1179;-64
2022/08/15 12:07:23;;;;;;;;;;;;;;;;;;2216368;66;1277;-65
2022/08/15 12:09:58;;;;;;;;;;;;;;;;;;2217065;66;1315;-66
2022/08/15 12:12:44;;;;;;;;;;;;;;;;;;2216525;58;1913;-63
2022/08/15 12:15:20;;;;;;;;;;;;;;;;;;2217181;66;1201;-65
2022/08/15 12:18:03;;;;;;;;;;;;;;;;;;2216599;66;1932;-66
2022/08/15 12:20:41;;;;;;;;;;;;;;;;;;2216279;66;1187;-64
2022/08/15 12:23:26;;;;;;;;;;;;;;;;;;2216807;66;1951;-64
2022/08/15 12:26:00;;;;;;;;;;;;;;;;;;2216962;66;1027;-66
2022/08/15 12:28:38;;;;;;;;;;;;;;;;;;2215826;58;1267;-65
2022/08/15 12:31:17;;;;;;;;;;;;;;;;;;2216196;66;1204;-65
2022/08/15 12:33:52;;;;;;;;;;;;;;;;;;2216281;66;1089;-65
2022/08/15 12:36:25;;;;;;;;;;;;;;;;;;2216547;59;1401;-65
2022/08/15 12:38:58;;;;;;;;;;;;;;;;;;2216469;66;1986;-65
2022/08/15 12:41:32;;;;;;;;;;;;;;;;;;2216102;58;1226;-62
2022/08/15 12:44:19;;;;;;;;;;;;;;;;;;2216555;58;1237;-64
2022/08/15 12:46:52;;;;;;;;;;;;;;;;;;2216135;66;1118;-64
2022/08/15 12:49:25;;;;;;;;;;;;;;;;;;2216250;66;1233;-64
2022/08/15 12:51:58;;;;;;;;;;;;;;;;;;2216262;66;1132;-64
2022/08/15 12:54:32;;;;;;;;;;;;;;;;;;2216481;66;1253;-64
2022/08/15 12:57:05;;;;;;;;;;;;;;;;;;2216133;66;1214;-65
2022/08/15 12:59:41;;;;;;;;;;;;;;;;;;2216182;66;1983;-65
2022/08/15 13:02:16;;;;;;;;;;;;;;;;;;2216164;58;1441;-65
2022/08/15 13:04:50;;;;;;;;;;;;;;;;;;2216439;59;1245;-64
2022/08/15 13:07:24;;;;;;;;;;;;;;;;;;2216747;66;1226;-63
2022/08/15 13:09:57;;;;;;;;;;;;;;;;;;2217126;66;1197;-64
2022/08/15 13:12:31;;;;;;;;;;;;;;;;;;2216285;58;1266;-64
2022/08/15 13:15:07;;;;;;;;;;;;;;;;;;2216581;66;1218;-63
2022/08/15 13:17:40;;;;;;;;;;;;;;;;;;2216711;66;1129;-63
2022/08/15 13:25:52;;;;;;;;;;;;;;;;;;2216781;66;1077;-65
2022/08/15 13:28:26;;;;;;;;;;;;;;;;;;2215421;58;1209;-65
2022/08/15 13:31:02;;;;;;;;;;;;;;;;;;2216176;66;1098;-64
2022/08/15 13:33:35;;;;;;;;;;;;;;;;;;2215818;66;1187;-65
2022/08/15 13:36:10;;;;;;;;;;;;;;;;;;2216105;58;1286;-64
2022/08/15 13:38:46;;;;;;;;;;;;;;;;;;2215819;66;1932;-65
2022/08/15 13:41:21;;;;;;;;;;;;;;;;;;2216801;66;1274;-64
2022/08/15 13:43:55;;;;;;;;;;;;;;;;;;2216644;59;1098;-64
2022/08/15 13:46:32;;;;;;;;;;;;;;;;;;2216022;66;1185;-63
2022/08/15 13:49:05;;;;;;;;;;;;;;;;;;2216807;66;1222;-65
2022/08/15 13:51:42;;;;;;;;;;;;;;;;;;2216495;66;1262;-65
2022/08/15 13:54:15;;;;;;;;;;;;;;;;;;2216741;66;1210;-64
2022/08/15 13:56:49;;;;;;;;;;;;;;;;;;2217007;66;1150;-64
2022/08/15 13:59:22;;;;;;;;;;;;;;;;;;2216526;59;1940;-65
2022/08/15 14:01:58;;;;;;;;;;;;;;;;;;2217480;59;1567;-64
2022/08/15 14:04:35;;;;;;;;;;;;;;;;;;2217175;58;1227;-65
2022/08/15 14:07:10;;;;;;;;;;;;;;;;;;2217019;66;1251;-65
2022/08/15 14:09:43;;;;;;;;;;;;;;;;;;2217680;66;1221;-65
2022/08/15 14:12:16;;;;;;;;;;;;;;;;;;2217587;66;1344;-65
2022/08/15 14:14:49;;;;;;;;;;;;;;;;;;2217333;66;1203;-64
2022/08/15 14:17:26;;;;;;;;;;;;;;;;;;2217251;66;1217;-64
2022/08/15 14:20:00;;;;;;;;;;;;;;;;;;2217206;66;1935;-62
2022/08/15 14:22:33;;;;;;;;;;;;;;;;;;2217019;66;1079;-65
2022/08/15 14:25:07;;;;;;;;;;;;;;;;;;2217349;66;1193;-65
2022/08/15 14:27:40;;;;;;;;;;;;;;;;;;2217278;66;1072;-65
2022/08/15 14:30:14;;;;;;;;;;;;;;;;;;2217221;66;1244;-65
2022/08/15 14:32:50;;;;;;;;;;;;;;;;;;2217775;66;1223;-65
2022/08/15 14:35:24;;;;;;;;;;;;;;;;;;2217478;66;1280;-65
2022/08/15 14:37:59;;;;;;;;;;;;;;;;;;2217221;58;1193;-64
2022/08/15 14:40:34;;;;;;;;;;;;;;;;;;2217196;66;1921;-63
2022/08/15 14:43:10;;;;;;;;;;;;;;;;;;2217411;66;1293;-64
2022/08/15 14:45:44;;;;;;;;;;;;;;;;;;2217503;66;1122;-64
2022/08/15 14:48:23;;;;;;;;;;;;;;;;;;2217496;66;1205;-65
2022/08/15 14:50:58;;;;;;;;;;;;;;;;;;2216549;66;1158;-65
2022/08/15 14:53:32;;;;;;;;;;;;;;;;;;2217070;66;1236;-65
2022/08/15 14:56:06;;;;;;;;;;;;;;;;;;2217044;66;1177;-64
2022/08/15 14:58:39;;;;;;;;;;;;;;;;;;2216741;66;1240;-65
2022/08/15 15:01:13;;;;;;;;;;;;;;;;;;2216460;66;1914;-63
2022/08/15 15:03:51;;;;;;;;;;;;;;;;;;2217093;58;1452;-64
2022/08/15 15:06:25;;;;;;;;;;;;;;;;;;2217369;58;1302;-65
2022/08/15 15:08:59;;;;;;;;;;;;;;;;;;2217368;66;1290;-64
2022/08/15 15:11:32;;;;;;;;;;;;;;;;;;2216930;58;1176;-65
2022/08/15 15:14:05;;;;;;;;;;;;;;;;;;2216882;66;1138;-64
2022/08/15 15:16:38;;;;;;;;;;;;;;;;;;2217451;66;1085;-65
2022/08/15 15:19:16;;;;;;;;;;;;;;;;;;2216461;66;1928;-64
2022/08/15 15:21:49;;;;;;;;;;;;;;;;;;2216578;66;1151;-62
2022/08/15 15:24:22;;;;;;;;;;;;;;;;;;2216401;66;1285;-62
2022/08/15 15:26:55;;;;;;;;;;;;;;;;;;2217857;66;1291;-64
2022/08/15 15:29:28;;;;;;;;;;;;;;;;;;2217275;59;1258;-64
2022/08/15 15:32:01;;;;;;;;;;;;;;;;;;2217424;66;1101;-62
2022/08/15 15:34:37;;;;;;;;;;;;;;;;;;2217066;66;1086;-64
2022/08/15 15:37:11;;;;;;;;;;;;;;;;;;2216713;58;1375;-63
2022/08/15 15:39:44;;;;;;;;;;;;;;;;;;2216026;66;1931;-63
2022/08/15 15:42:17;;;;;;;;;;;;;;;;;;2217724;66;1228;-57
2022/08/15 15:44:51;;;;;;;;;;;;;;;;;;2217094;66;1405;-62
2022/08/15 15:47:24;;;;;;;;;;;;;;;;;;2216860;66;1263;-61
2022/08/15 15:50:00;;;;;;;;;;;;;;;;;;2216641;59;1282;-63
2022/08/15 15:52:33;;;;;;;;;;;;;;;;;;2216286;66;1068;-61
2022/08/15 15:55:07;;;;;;;;;;;;;;;;;;2217097;66;1117;-64
2022/08/15 15:57:40;;;;;;;;;;;;;;;;;;2216692;66;1168;-63
2022/08/15 16:00:15;;;;;;;;;;;;;;;;;;2217384;66;1931;-64
2022/08/15 16:02:50;;;;;;;;;;;;;;;;;;2217067;58;1674;-64
2022/08/15 16:05:29;;;;;;;;;;;;;;;;;;2216376;66;1329;-64
2022/08/15 16:08:02;;;;;;;;;;;;;;;;;;2216943;66;1218;-63
2022/08/15 16:10:38;;;;;;;;;;;;;;;;;;2217126;58;1202;-65
2022/08/15 16:13:15;;;;;;;;;;;;;;;;;;2216904;66;1265;-64
2022/08/15 16:15:50;;;;;;;;;;;;;;;;;;2216842;59;992;-64
2022/08/15 16:18:27;;;;;;;;;;;;;;;;;;2217243;66;1308;-65
2022/08/15 16:21:05;;;;;;;;;;;;;;;;;;2216660;66;1931;-64
2022/08/15 16:23:42;;;;;;;;;;;;;;;;;;2216779;66;1236;-65
2022/08/15 16:26:19;;;;;;;;;;;;;;;;;;2216871;58;1261;-62
2022/08/15 16:28:55;;;;;;;;;;;;;;;;;;2216802;58;1163;-65
2022/08/15 16:31:30;;;;;;;;;;;;;;;;;;2217370;66;1181;-65
2022/08/15 16:34:07;;;;;;;;;;;;;;;;;;2217160;66;1257;-64
2022/08/15 16:36:45;;;;;;;;;;;;;;;;;;2217124;58;1376;-64
2022/08/15 16:39:22;;;;;;;;;;;;;;;;;;2216551;66;1232;-64
2022/08/15 16:41:58;;;;;;;;;;;;;;;;;;2217007;66;1079;-65
2022/08/15 16:44:33;;;;;;;;;;;;;;;;;;2216843;58;1241;-65
2022/08/15 16:47:14;;;;;;;;;;;;;;;;;;2217057;66;1194;-65
2022/08/15 16:49:51;;;;;;;;;;;;;;;;;;2216341;66;1317;-65
2022/08/15 16:52:31;;;;;;;;;;;;;;;;;;2216229;66;1156;-64
2022/08/15 16:55:10;;;;;;;;;;;;;;;;;;2217031;66;1135;-65
2022/08/15 16:57:52;;;;;;;;;;;;;;;;;;2216907;66;1096;-65
2022/08/15 17:00:30;;;;;;;;;;;;;;;;;;2216017;66;1919;-64
2022/08/15 17:03:13;;;;;;;;;;;;;;;;;;2215532;58;1615;-65
2022/08/15 17:05:50;;;;;;;;;;;;;;;;;;2216790;58;1258;-65
2022/08/15 17:08:29;;;;;;;;;;;;;;;;;;2216696;66;1282;-65
2022/08/15 17:11:06;;;;;;;;;;;;;;;;;;2217287;58;1249;-65
2022/08/15 17:13:56;;;;;;;;;;;;;;;;;;2216133;66;2404;-65
2022/08/15 17:16:33;;;;;;;;;;;;;;;;;;2216906;66;1209;-65
2022/08/15 17:19:12;;;;;;;;;;;;;;;;;;2216356;66;1296;-65
2022/08/15 17:21:50;;;;;;;;;;;;;;;;;;2216363;66;1940;-65
2022/08/15 17:24:43;;;;;;;;;;;;;;;;;;2217585;66;1209;-65
2022/08/15 17:27:19;;;;;;;;;;;;;;;;;;2217240;66;1264;-65
2022/08/15 17:30:04;;;;;;;;;;;;;;;;;;2216907;58;1221;-64
2022/08/15 17:32:41;;;;;;;;;;;;;;;;;;2217906;66;1041;-64
2022/08/15 17:35:15;;;;;;;;;;;;;;;;;;2217180;66;1259;-65
2022/08/15 17:37:49;;;;;;;;;;;;;;;;;;2216922;58;1693;-64
2022/08/15 17:40:28;;;;;;;;;;;;;;;;;;2216910;66;1936;-63
2022/08/15 17:43:07;;;;;;;;;;;;;;;;;;2217046;58;1229;-65
2022/08/15 17:45:42;;;;;;;;;;;;;;;;;;2216849;66;1154;-65
2022/08/15 17:48:20;;;;;;;;;;;;;;;;;;2217524;66;1208;-64
2022/08/15 17:50:54;;;;;;;;;;;;;;;;;;2217159;66;1029;-64
2022/08/15 17:53:31;;;;;;;;;;;;;;;;;;2216957;66;1329;-64
2022/08/15 17:56:10;;;;;;;;;;;;;;;;;;2217703;66;1169;-65
2022/08/15 17:58:45;;;;;;;;;;;;;;;;;;2216565;66;1277;-64
2022/08/15 18:01:18;;;;;;;;;;;;;;;;;;2216850;59;1933;-64
2022/08/15 18:03:52;;;;;;;;;;;;;;;;;;2216476;58;1360;-65
2022/08/15 18:06:25;;;;;;;;;;;;;;;;;;2216891;58;1227;-64
2022/08/15 18:09:02;;;;;;;;;;;;;;;;;;2216669;66;1207;-65
2022/08/15 18:11:40;;;;;;;;;;;;;;;;;;2216831;58;1356;-64
2022/08/15 18:14:15;;;;;;;;;;;;;;;;;;2217650;66;1217;-65
2022/08/15 18:16:53;;;;;;;;;;;;;;;;;;2217253;59;1297;-65
2022/08/15 18:19:27;;;;;;;;;;;;;;;;;;2216938;66;1291;-65
2022/08/15 18:22:02;;;;;;;;;;;;;;;;;;2216763;66;1935;-64